sensor_id;sensor_type;location;lat;lon;timestamp;P1;durP1;ratioP1;P2;durP2;ratioP2
5823;SDS011;2938;52.254;12.988;2023-12-04T00:02:19;38.45;;;17.27;;
5823;SDS011;2938;52.254;12.988;2023-12-04T00:04:44;30.90;;;15.68;;
5823;SDS011;2938;52.254;12.988;2023-12-04T00:07:09;27.13;;;16.70;;
5823;SDS011;2938;52.254;12.988;2023-12-04T00:09:35;32.60;;;15.52;;
5823;SDS011;2938;52.254;12.988;2023-12-04T00:12:00;38.30;;;17.00;;
5823;SDS011;2938;52.254;12.988;2023-12-04T00:14:25;27.52;;;14.32;;
5823;SDS011;2938;52.254;12.988;2023-12-04T00:16:50;32.88;;;18.20;;
5823;SDS011;2938;52.254;12.988;2023-12-04T00:19:16;30.55;;;14.93;;
5823;SDS011;2938;52.254;12.988;2023-12-04T00:21:41;30.35;;;16.13;;
5823;SDS011;2938;52.254;12.988;2023-12-04T00:24:06;31.20;;;14.25;;
5823;SDS011;2938;52.254;12.988;2023-12-04T00:26:32;34.20;;;15.52;;
5823;SDS011;2938;52.254;12.988;2023-12-04T00:28:57;36.53;;;16.15;;
5823;SDS011;2938;52.254;12.988;2023-12-04T00:31:22;40.47;;;18.02;;
5823;SDS011;2938;52.254;12.988;2023-12-04T00:33:48;34.22;;;16.25;;
5823;SDS011;2938;52.254;12.988;2023-12-04T00:36:13;40.38;;;17.58;;
5823;SDS011;2938;52.254;12.988;2023-12-04T00:38:38;43.33;;;18.70;;
5823;SDS011;2938;52.254;12.988;2023-12-04T00:41:04;42.15;;;18.92;;
5823;SDS011;2938;52.254;12.988;2023-12-04T00:43:29;36.78;;;17.50;;
5823;SDS011;2938;52.254;12.988;2023-12-04T00:45:57;38.08;;;17.05;;
5823;SDS011;2938;52.254;12.988;2023-12-04T00:48:22;34.75;;;18.63;;
5823;SDS011;2938;52.254;12.988;2023-12-04T00:50:48;28.65;;;15.45;;
5823;SDS011;2938;52.254;12.988;2023-12-04T00:53:13;46.80;;;20.45;;
5823;SDS011;2938;52.254;12.988;2023-12-04T00:55:38;43.92;;;19.45;;
5823;SDS011;2938;52.254;12.988;2023-12-04T00:58:04;33.90;;;18.02;;
5823;SDS011;2938;52.254;12.988;2023-12-04T01:00:29;39.75;;;17.30;;
5823;SDS011;2938;52.254;12.988;2023-12-04T01:02:54;37.90;;;17.20;;
5823;SDS011;2938;52.254;12.988;2023-12-04T01:05:20;35.38;;;17.85;;
5823;SDS011;2938;52.254;12.988;2023-12-04T01:07:45;33.20;;;18.08;;
5823;SDS011;2938;52.254;12.988;2023-12-04T01:10:10;34.78;;;17.27;;
5823;SDS011;2938;52.254;12.988;2023-12-04T01:12:35;37.78;;;17.05;;
5823;SDS011;2938;52.254;12.988;2023-12-04T01:15:01;48.63;;;20.38;;
5823;SDS011;2938;52.254;12.988;2023-12-04T01:17:28;37.38;;;17.33;;
5823;SDS011;2938;52.254;12.988;2023-12-04T01:19:53;43.33;;;19.23;;
5823;SDS011;2938;52.254;12.988;2023-12-04T01:22:18;39.38;;;16.48;;
5823;SDS011;2938;52.254;12.988;2023-12-04T01:24:44;32.80;;;17.17;;
5823;SDS011;2938;52.254;12.988;2023-12-04T01:27:09;39.78;;;15.63;;
5823;SDS011;2938;52.254;12.988;2023-12-04T01:29:35;36.50;;;17.75;;
5823;SDS011;2938;52.254;12.988;2023-12-04T01:32:01;29.77;;;16.30;;
5823;SDS011;2938;52.254;12.988;2023-12-04T01:34:26;36.13;;;16.25;;
5823;SDS011;2938;52.254;12.988;2023-12-04T01:36:51;32.05;;;15.95;;
5823;SDS011;2938;52.254;12.988;2023-12-04T01:39:17;40.80;;;18.05;;
5823;SDS011;2938;52.254;12.988;2023-12-04T01:41:42;34.22;;;18.15;;
5823;SDS011;2938;52.254;12.988;2023-12-04T01:44:08;45.67;;;20.25;;
5823;SDS011;2938;52.254;12.988;2023-12-04T01:46:33;38.08;;;17.48;;
5823;SDS011;2938;52.254;12.988;2023-12-04T01:48:58;32.33;;;17.60;;
5823;SDS011;2938;52.254;12.988;2023-12-04T01:51:24;40.63;;;17.45;;
5823;SDS011;2938;52.254;12.988;2023-12-04T01:53:51;41.28;;;18.67;;
5823;SDS011;2938;52.254;12.988;2023-12-04T01:56:16;32.05;;;17.23;;
5823;SDS011;2938;52.254;12.988;2023-12-04T01:58:42;35.08;;;18.90;;
5823;SDS011;2938;52.254;12.988;2023-12-04T02:01:08;47.33;;;21.20;;
5823;SDS011;2938;52.254;12.988;2023-12-04T02:03:34;36.15;;;18.63;;
5823;SDS011;2938;52.254;12.988;2023-12-04T02:06:00;31.13;;;16.00;;
5823;SDS011;2938;52.254;12.988;2023-12-04T02:08:28;31.73;;;18.42;;
5823;SDS011;2938;52.254;12.988;2023-12-04T02:10:53;41.60;;;19.48;;
5823;SDS011;2938;52.254;12.988;2023-12-04T02:13:19;37.00;;;18.65;;
5823;SDS011;2938;52.254;12.988;2023-12-04T02:15:44;47.53;;;18.23;;
5823;SDS011;2938;52.254;12.988;2023-12-04T02:18:11;48.75;;;21.98;;
5823;SDS011;2938;52.254;12.988;2023-12-04T02:20:36;43.08;;;21.23;;
5823;SDS011;2938;52.254;12.988;2023-12-04T02:23:02;47.97;;;26.48;;
5823;SDS011;2938;52.254;12.988;2023-12-04T02:25:28;50.53;;;24.60;;
5823;SDS011;2938;52.254;12.988;2023-12-04T02:27:54;44.95;;;21.90;;
5823;SDS011;2938;52.254;12.988;2023-12-04T02:30:22;53.33;;;24.80;;
5823;SDS011;2938;52.254;12.988;2023-12-04T02:32:48;49.17;;;25.25;;
5823;SDS011;2938;52.254;12.988;2023-12-04T02:35:14;55.40;;;25.60;;
5823;SDS011;2938;52.254;12.988;2023-12-04T02:37:41;54.13;;;22.13;;
5823;SDS011;2938;52.254;12.988;2023-12-04T02:40:07;47.58;;;22.42;;
5823;SDS011;2938;52.254;12.988;2023-12-04T02:42:33;51.80;;;23.45;;
5823;SDS011;2938;52.254;12.988;2023-12-04T02:44:58;51.08;;;23.60;;
5823;SDS011;2938;52.254;12.988;2023-12-04T02:47:24;52.28;;;24.42;;
5823;SDS011;2938;52.254;12.988;2023-12-04T02:49:49;60.28;;;29.75;;
5823;SDS011;2938;52.254;12.988;2023-12-04T02:52:14;56.55;;;26.88;;
5823;SDS011;2938;52.254;12.988;2023-12-04T02:54:40;54.97;;;27.60;;
5823;SDS011;2938;52.254;12.988;2023-12-04T02:57:05;55.97;;;26.75;;
5823;SDS011;2938;52.254;12.988;2023-12-04T02:59:30;54.38;;;29.52;;
5823;SDS011;2938;52.254;12.988;2023-12-04T03:01:58;55.83;;;24.95;;
5823;SDS011;2938;52.254;12.988;2023-12-04T03:04:23;57.50;;;25.17;;
5823;SDS011;2938;52.254;12.988;2023-12-04T03:06:49;51.88;;;27.70;;
5823;SDS011;2938;52.254;12.988;2023-12-04T03:09:14;51.97;;;26.05;;
5823;SDS011;2938;52.254;12.988;2023-12-04T03:11:40;62.58;;;29.85;;
5823;SDS011;2938;52.254;12.988;2023-12-04T03:14:06;54.83;;;27.98;;
5823;SDS011;2938;52.254;12.988;2023-12-04T03:16:31;58.15;;;29.08;;
5823;SDS011;2938;52.254;12.988;2023-12-04T03:18:57;53.67;;;26.25;;
5823;SDS011;2938;52.254;12.988;2023-12-04T03:21:22;53.30;;;26.85;;
5823;SDS011;2938;52.254;12.988;2023-12-04T03:23:47;69.47;;;28.88;;
5823;SDS011;2938;52.254;12.988;2023-12-04T03:26:13;60.45;;;26.52;;
5823;SDS011;2938;52.254;12.988;2023-12-04T03:28:41;48.08;;;22.80;;
5823;SDS011;2938;52.254;12.988;2023-12-04T03:31:12;50.20;;;26.35;;
5823;SDS011;2938;52.254;12.988;2023-12-04T03:33:37;58.63;;;29.23;;
5823;SDS011;2938;52.254;12.988;2023-12-04T03:36:03;58.35;;;26.00;;
5823;SDS011;2938;52.254;12.988;2023-12-04T03:38:29;53.85;;;26.00;;
5823;SDS011;2938;52.254;12.988;2023-12-04T03:40:54;53.47;;;26.73;;
5823;SDS011;2938;52.254;12.988;2023-12-04T03:43:19;53.65;;;25.65;;
5823;SDS011;2938;52.254;12.988;2023-12-04T03:45:47;50.50;;;27.95;;
5823;SDS011;2938;52.254;12.988;2023-12-04T03:48:12;40.72;;;22.45;;
5823;SDS011;2938;52.254;12.988;2023-12-04T03:50:37;53.20;;;25.08;;
5823;SDS011;2938;52.254;12.988;2023-12-04T03:53:03;58.58;;;26.92;;
5823;SDS011;2938;52.254;12.988;2023-12-04T03:55:28;61.33;;;25.20;;
5823;SDS011;2938;52.254;12.988;2023-12-04T03:57:54;55.20;;;26.85;;
5823;SDS011;2938;52.254;12.988;2023-12-04T04:00:19;56.03;;;26.85;;
5823;SDS011;2938;52.254;12.988;2023-12-04T04:02:45;53.55;;;27.73;;
5823;SDS011;2938;52.254;12.988;2023-12-04T04:05:10;57.25;;;28.45;;
5823;SDS011;2938;52.254;12.988;2023-12-04T04:07:36;52.22;;;26.08;;
5823;SDS011;2938;52.254;12.988;2023-12-04T04:10:01;50.17;;;21.98;;
5823;SDS011;2938;52.254;12.988;2023-12-04T04:12:27;53.85;;;24.05;;
5823;SDS011;2938;52.254;12.988;2023-12-04T04:14:52;45.13;;;23.30;;
5823;SDS011;2938;52.254;12.988;2023-12-04T04:17:18;47.20;;;21.55;;
5823;SDS011;2938;52.254;12.988;2023-12-04T04:19:43;57.88;;;27.15;;
5823;SDS011;2938;52.254;12.988;2023-12-04T04:22:08;52.58;;;26.60;;
5823;SDS011;2938;52.254;12.988;2023-12-04T04:24:33;56.00;;;26.75;;
5823;SDS011;2938;52.254;12.988;2023-12-04T04:26:59;52.47;;;24.05;;
5823;SDS011;2938;52.254;12.988;2023-12-04T04:29:24;57.42;;;27.40;;
5823;SDS011;2938;52.254;12.988;2023-12-04T04:31:49;54.08;;;29.35;;
5823;SDS011;2938;52.254;12.988;2023-12-04T04:34:15;49.50;;;23.60;;
5823;SDS011;2938;52.254;12.988;2023-12-04T04:36:40;47.42;;;23.13;;
5823;SDS011;2938;52.254;12.988;2023-12-04T04:39:05;50.72;;;26.60;;
5823;SDS011;2938;52.254;12.988;2023-12-04T04:41:31;45.10;;;21.90;;
5823;SDS011;2938;52.254;12.988;2023-12-04T04:43:56;49.45;;;22.75;;
5823;SDS011;2938;52.254;12.988;2023-12-04T04:46:22;43.03;;;22.60;;
5823;SDS011;2938;52.254;12.988;2023-12-04T04:48:47;43.58;;;22.20;;
5823;SDS011;2938;52.254;12.988;2023-12-04T04:51:12;46.45;;;23.42;;
5823;SDS011;2938;52.254;12.988;2023-12-04T04:53:38;57.83;;;27.13;;
5823;SDS011;2938;52.254;12.988;2023-12-04T04:56:03;43.10;;;20.45;;
5823;SDS011;2938;52.254;12.988;2023-12-04T04:58:29;49.60;;;26.50;;
5823;SDS011;2938;52.254;12.988;2023-12-04T05:00:54;48.70;;;22.77;;
5823;SDS011;2938;52.254;12.988;2023-12-04T05:03:20;40.92;;;22.85;;
5823;SDS011;2938;52.254;12.988;2023-12-04T05:05:45;47.42;;;22.45;;
5823;SDS011;2938;52.254;12.988;2023-12-04T05:08:10;47.75;;;24.30;;
5823;SDS011;2938;52.254;12.988;2023-12-04T05:10:38;55.20;;;24.05;;
5823;SDS011;2938;52.254;12.988;2023-12-04T05:13:03;49.38;;;22.63;;
5823;SDS011;2938;52.254;12.988;2023-12-04T05:15:29;48.80;;;23.70;;
5823;SDS011;2938;52.254;12.988;2023-12-04T05:17:54;50.17;;;22.73;;
5823;SDS011;2938;52.254;12.988;2023-12-04T05:20:19;44.05;;;22.88;;
5823;SDS011;2938;52.254;12.988;2023-12-04T05:22:44;40.92;;;20.83;;
5823;SDS011;2938;52.254;12.988;2023-12-04T05:25:10;58.85;;;25.20;;
5823;SDS011;2938;52.254;12.988;2023-12-04T05:27:35;50.08;;;26.67;;
5823;SDS011;2938;52.254;12.988;2023-12-04T05:30:00;46.38;;;23.25;;
5823;SDS011;2938;52.254;12.988;2023-12-04T05:32:26;50.45;;;24.83;;
5823;SDS011;2938;52.254;12.988;2023-12-04T05:34:51;47.90;;;21.10;;
5823;SDS011;2938;52.254;12.988;2023-12-04T05:37:16;42.95;;;21.60;;
5823;SDS011;2938;52.254;12.988;2023-12-04T05:39:42;41.03;;;20.77;;
5823;SDS011;2938;52.254;12.988;2023-12-04T05:42:07;55.88;;;23.67;;
5823;SDS011;2938;52.254;12.988;2023-12-04T05:44:33;50.13;;;23.58;;
5823;SDS011;2938;52.254;12.988;2023-12-04T05:46:59;46.67;;;25.70;;
5823;SDS011;2938;52.254;12.988;2023-12-04T05:49:24;47.05;;;22.83;;
5823;SDS011;2938;52.254;12.988;2023-12-04T05:51:50;48.05;;;22.98;;
5823;SDS011;2938;52.254;12.988;2023-12-04T05:54:15;40.05;;;22.17;;
5823;SDS011;2938;52.254;12.988;2023-12-04T05:56:40;45.90;;;22.33;;
5823;SDS011;2938;52.254;12.988;2023-12-04T05:59:05;48.35;;;24.98;;
5823;SDS011;2938;52.254;12.988;2023-12-04T06:01:31;53.20;;;23.90;;
5823;SDS011;2938;52.254;12.988;2023-12-04T06:03:56;40.25;;;20.83;;
5823;SDS011;2938;52.254;12.988;2023-12-04T06:06:21;49.67;;;23.70;;
5823;SDS011;2938;52.254;12.988;2023-12-04T06:08:47;47.05;;;23.15;;
5823;SDS011;2938;52.254;12.988;2023-12-04T06:11:12;39.88;;;21.17;;
5823;SDS011;2938;52.254;12.988;2023-12-04T06:13:38;44.25;;;22.95;;
5823;SDS011;2938;52.254;12.988;2023-12-04T06:16:03;36.95;;;21.50;;
5823;SDS011;2938;52.254;12.988;2023-12-04T06:18:29;46.92;;;24.20;;
5823;SDS011;2938;52.254;12.988;2023-12-04T06:20:55;40.25;;;22.95;;
5823;SDS011;2938;52.254;12.988;2023-12-04T06:23:20;39.03;;;21.52;;
5823;SDS011;2938;52.254;12.988;2023-12-04T06:25:45;40.90;;;21.20;;
5823;SDS011;2938;52.254;12.988;2023-12-04T06:28:11;36.42;;;20.15;;
5823;SDS011;2938;52.254;12.988;2023-12-04T06:30:37;49.47;;;25.38;;
5823;SDS011;2938;52.254;12.988;2023-12-04T06:33:03;41.42;;;21.42;;
5823;SDS011;2938;52.254;12.988;2023-12-04T06:35:29;44.85;;;23.25;;
5823;SDS011;2938;52.254;12.988;2023-12-04T06:37:55;46.58;;;23.52;;
5823;SDS011;2938;52.254;12.988;2023-12-04T06:40:21;42.17;;;21.27;;
5823;SDS011;2938;52.254;12.988;2023-12-04T06:42:51;52.20;;;25.40;;
5823;SDS011;2938;52.254;12.988;2023-12-04T06:45:29;43.40;;;21.65;;
5823;SDS011;2938;52.254;12.988;2023-12-04T06:47:57;44.83;;;21.73;;
5823;SDS011;2938;52.254;12.988;2023-12-04T06:50:23;43.35;;;22.40;;
5823;SDS011;2938;52.254;12.988;2023-12-04T06:52:49;44.72;;;20.50;;
5823;SDS011;2938;52.254;12.988;2023-12-04T06:55:14;44.92;;;22.67;;
5823;SDS011;2938;52.254;12.988;2023-12-04T06:57:40;47.58;;;22.48;;
5823;SDS011;2938;52.254;12.988;2023-12-04T07:00:06;48.58;;;24.77;;
5823;SDS011;2938;52.254;12.988;2023-12-04T07:02:32;46.60;;;24.13;;
5823;SDS011;2938;52.254;12.988;2023-12-04T07:04:58;39.40;;;21.63;;
5823;SDS011;2938;52.254;12.988;2023-12-04T07:07:23;42.53;;;22.15;;
5823;SDS011;2938;52.254;12.988;2023-12-04T07:09:51;43.30;;;20.85;;
5823;SDS011;2938;52.254;12.988;2023-12-04T07:12:16;43.72;;;22.85;;
5823;SDS011;2938;52.254;12.988;2023-12-04T07:14:42;53.33;;;23.08;;
5823;SDS011;2938;52.254;12.988;2023-12-04T07:17:07;41.13;;;21.55;;
5823;SDS011;2938;52.254;12.988;2023-12-04T07:19:33;44.55;;;21.48;;
5823;SDS011;2938;52.254;12.988;2023-12-04T07:21:58;42.47;;;21.08;;
5823;SDS011;2938;52.254;12.988;2023-12-04T07:24:26;44.92;;;22.90;;
5823;SDS011;2938;52.254;12.988;2023-12-04T07:26:52;36.13;;;20.50;;
5823;SDS011;2938;52.254;12.988;2023-12-04T07:29:20;45.15;;;22.02;;
5823;SDS011;2938;52.254;12.988;2023-12-04T07:31:46;59.30;;;24.95;;
5823;SDS011;2938;52.254;12.988;2023-12-04T07:34:11;41.40;;;19.58;;
5823;SDS011;2938;52.254;12.988;2023-12-04T07:36:37;36.53;;;20.38;;
5823;SDS011;2938;52.254;12.988;2023-12-04T07:39:02;42.70;;;22.90;;
5823;SDS011;2938;52.254;12.988;2023-12-04T07:41:31;31.75;;;18.35;;
5823;SDS011;2938;52.254;12.988;2023-12-04T07:43:56;47.60;;;21.88;;
5823;SDS011;2938;52.254;12.988;2023-12-04T07:46:21;42.65;;;21.42;;
5823;SDS011;2938;52.254;12.988;2023-12-04T07:48:47;43.28;;;22.40;;
5823;SDS011;2938;52.254;12.988;2023-12-04T07:51:12;44.30;;;21.13;;
5823;SDS011;2938;52.254;12.988;2023-12-04T07:53:38;39.10;;;22.98;;
5823;SDS011;2938;52.254;12.988;2023-12-04T07:56:03;37.70;;;21.52;;
5823;SDS011;2938;52.254;12.988;2023-12-04T07:58:30;41.38;;;22.48;;
5823;SDS011;2938;52.254;12.988;2023-12-04T08:00:56;35.35;;;18.27;;
5823;SDS011;2938;52.254;12.988;2023-12-04T08:03:21;48.60;;;22.63;;
5823;SDS011;2938;52.254;12.988;2023-12-04T08:05:47;40.08;;;21.50;;
5823;SDS011;2938;52.254;12.988;2023-12-04T08:08:12;38.72;;;21.02;;
5823;SDS011;2938;52.254;12.988;2023-12-04T08:10:40;33.25;;;19.77;;
5823;SDS011;2938;52.254;12.988;2023-12-04T08:13:06;35.28;;;18.58;;
5823;SDS011;2938;52.254;12.988;2023-12-04T08:15:31;36.03;;;19.85;;
5823;SDS011;2938;52.254;12.988;2023-12-04T08:17:57;45.05;;;21.58;;
5823;SDS011;2938;52.254;12.988;2023-12-04T08:20:25;42.30;;;21.15;;
5823;SDS011;2938;52.254;12.988;2023-12-04T08:22:50;40.40;;;22.35;;
5823;SDS011;2938;52.254;12.988;2023-12-04T08:25:16;43.90;;;21.35;;
5823;SDS011;2938;52.254;12.988;2023-12-04T08:27:41;40.03;;;22.08;;
5823;SDS011;2938;52.254;12.988;2023-12-04T08:30:07;42.60;;;21.38;;
5823;SDS011;2938;52.254;12.988;2023-12-04T08:32:33;45.78;;;23.42;;
5823;SDS011;2938;52.254;12.988;2023-12-04T08:34:58;39.85;;;20.10;;
5823;SDS011;2938;52.254;12.988;2023-12-04T08:37:24;40.22;;;22.15;;
5823;SDS011;2938;52.254;12.988;2023-12-04T08:39:49;34.17;;;19.50;;
5823;SDS011;2938;52.254;12.988;2023-12-04T08:42:14;37.97;;;19.40;;
5823;SDS011;2938;52.254;12.988;2023-12-04T08:44:40;39.33;;;19.75;;
5823;SDS011;2938;52.254;12.988;2023-12-04T08:47:05;42.33;;;21.70;;
5823;SDS011;2938;52.254;12.988;2023-12-04T08:49:30;44.80;;;21.05;;
5823;SDS011;2938;52.254;12.988;2023-12-04T08:51:56;37.80;;;20.58;;
5823;SDS011;2938;52.254;12.988;2023-12-04T08:54:21;42.35;;;23.63;;
5823;SDS011;2938;52.254;12.988;2023-12-04T08:56:46;36.97;;;19.95;;
5823;SDS011;2938;52.254;12.988;2023-12-04T08:59:12;34.53;;;19.33;;
5823;SDS011;2938;52.254;12.988;2023-12-04T09:01:41;32.80;;;18.00;;
5823;SDS011;2938;52.254;12.988;2023-12-04T09:04:07;34.13;;;20.50;;
5823;SDS011;2938;52.254;12.988;2023-12-04T09:06:32;37.80;;;19.67;;
5823;SDS011;2938;52.254;12.988;2023-12-04T09:08:58;41.30;;;17.60;;
5823;SDS011;2938;52.254;12.988;2023-12-04T09:11:23;32.92;;;18.08;;
5823;SDS011;2938;52.254;12.988;2023-12-04T09:13:49;40.00;;;18.77;;
5823;SDS011;2938;52.254;12.988;2023-12-04T09:16:15;39.88;;;18.60;;
5823;SDS011;2938;52.254;12.988;2023-12-04T09:18:40;32.80;;;17.67;;
5823;SDS011;2938;52.254;12.988;2023-12-04T09:21:06;34.65;;;19.35;;
5823;SDS011;2938;52.254;12.988;2023-12-04T09:23:33;34.53;;;18.60;;
5823;SDS011;2938;52.254;12.988;2023-12-04T09:25:58;42.35;;;19.20;;
5823;SDS011;2938;52.254;12.988;2023-12-04T09:28:24;34.17;;;18.50;;
5823;SDS011;2938;52.254;12.988;2023-12-04T09:30:49;38.97;;;20.45;;
5823;SDS011;2938;52.254;12.988;2023-12-04T09:33:15;36.05;;;20.23;;
5823;SDS011;2938;52.254;12.988;2023-12-04T09:35:40;37.70;;;19.10;;
5823;SDS011;2938;52.254;12.988;2023-12-04T09:38:05;35.10;;;16.63;;
5823;SDS011;2938;52.254;12.988;2023-12-04T09:40:31;35.00;;;17.05;;
5823;SDS011;2938;52.254;12.988;2023-12-04T09:42:57;37.88;;;18.42;;
5823;SDS011;2938;52.254;12.988;2023-12-04T09:45:23;36.15;;;17.77;;
5823;SDS011;2938;52.254;12.988;2023-12-04T09:47:49;36.70;;;20.38;;
5823;SDS011;2938;52.254;12.988;2023-12-04T09:50:15;31.30;;;17.98;;
5823;SDS011;2938;52.254;12.988;2023-12-04T09:52:42;43.97;;;20.10;;
5823;SDS011;2938;52.254;12.988;2023-12-04T09:55:07;31.77;;;17.45;;
5823;SDS011;2938;52.254;12.988;2023-12-04T09:57:33;36.65;;;21.35;;
5823;SDS011;2938;52.254;12.988;2023-12-04T10:00:00;36.67;;;20.35;;
5823;SDS011;2938;52.254;12.988;2023-12-04T10:02:25;46.42;;;18.45;;
5823;SDS011;2938;52.254;12.988;2023-12-04T10:04:51;38.17;;;21.27;;
5823;SDS011;2938;52.254;12.988;2023-12-04T10:07:17;42.95;;;21.63;;
5823;SDS011;2938;52.254;12.988;2023-12-04T10:09:42;33.88;;;19.35;;
5823;SDS011;2938;52.254;12.988;2023-12-04T10:12:07;40.30;;;21.27;;
5823;SDS011;2938;52.254;12.988;2023-12-04T10:14:33;33.35;;;16.73;;
5823;SDS011;2938;52.254;12.988;2023-12-04T10:17:13;34.80;;;18.55;;
5823;SDS011;2938;52.254;12.988;2023-12-04T10:19:39;39.83;;;21.65;;
5823;SDS011;2938;52.254;12.988;2023-12-04T10:22:05;32.50;;;20.25;;
5823;SDS011;2938;52.254;12.988;2023-12-04T10:24:35;36.45;;;18.67;;
5823;SDS011;2938;52.254;12.988;2023-12-04T10:27:02;28.88;;;16.42;;
5823;SDS011;2938;52.254;12.988;2023-12-04T10:29:47;31.45;;;17.45;;
5823;SDS011;2938;52.254;12.988;2023-12-04T10:32:13;32.80;;;17.58;;
5823;SDS011;2938;52.254;12.988;2023-12-04T10:34:43;30.73;;;18.10;;
5823;SDS011;2938;52.254;12.988;2023-12-04T10:37:09;26.80;;;16.48;;
5823;SDS011;2938;52.254;12.988;2023-12-04T10:39:45;34.50;;;18.27;;
5823;SDS011;2938;52.254;12.988;2023-12-04T10:42:12;37.38;;;16.80;;
5823;SDS011;2938;52.254;12.988;2023-12-04T10:44:37;35.92;;;17.35;;
5823;SDS011;2938;52.254;12.988;2023-12-04T10:47:06;31.10;;;17.75;;
5823;SDS011;2938;52.254;12.988;2023-12-04T10:49:32;30.52;;;17.90;;
5823;SDS011;2938;52.254;12.988;2023-12-04T10:51:57;39.65;;;19.55;;
5823;SDS011;2938;52.254;12.988;2023-12-04T10:54:30;29.13;;;15.98;;
5823;SDS011;2938;52.254;12.988;2023-12-04T10:56:57;28.38;;;14.57;;
5823;SDS011;2938;52.254;12.988;2023-12-04T10:59:31;34.17;;;17.88;;
5823;SDS011;2938;52.254;12.988;2023-12-04T11:01:59;32.53;;;17.80;;
5823;SDS011;2938;52.254;12.988;2023-12-04T11:04:28;25.73;;;15.65;;
5823;SDS011;2938;52.254;12.988;2023-12-04T11:06:55;37.60;;;17.80;;
5823;SDS011;2938;52.254;12.988;2023-12-04T11:09:21;37.22;;;16.90;;
5823;SDS011;2938;52.254;12.988;2023-12-04T11:11:48;31.55;;;18.80;;
5823;SDS011;2938;52.254;12.988;2023-12-04T11:14:16;29.00;;;14.98;;
5823;SDS011;2938;52.254;12.988;2023-12-04T11:16:48;30.92;;;17.05;;
5823;SDS011;2938;52.254;12.988;2023-12-04T11:19:18;31.10;;;15.57;;
5823;SDS011;2938;52.254;12.988;2023-12-04T11:24:12;27.20;;;16.00;;
5823;SDS011;2938;52.254;12.988;2023-12-04T11:26:38;30.27;;;17.17;;
5823;SDS011;2938;52.254;12.988;2023-12-04T11:29:07;31.45;;;17.02;;
5823;SDS011;2938;52.254;12.988;2023-12-04T11:31:34;36.15;;;20.35;;
5823;SDS011;2938;52.254;12.988;2023-12-04T11:34:03;33.65;;;18.98;;
5823;SDS011;2938;52.254;12.988;2023-12-04T11:36:29;26.70;;;16.23;;
5823;SDS011;2938;52.254;12.988;2023-12-04T11:38:54;32.17;;;16.20;;
5823;SDS011;2938;52.254;12.988;2023-12-04T11:41:22;32.53;;;17.17;;
5823;SDS011;2938;52.254;12.988;2023-12-04T11:43:48;30.50;;;16.83;;
5823;SDS011;2938;52.254;12.988;2023-12-04T11:46:14;29.83;;;16.60;;
5823;SDS011;2938;52.254;12.988;2023-12-04T11:48:53;30.35;;;15.88;;
5823;SDS011;2938;52.254;12.988;2023-12-04T11:54:03;30.10;;;15.90;;
5823;SDS011;2938;52.254;12.988;2023-12-04T11:56:30;29.58;;;16.85;;
5823;SDS011;2938;52.254;12.988;2023-12-04T11:58:55;29.05;;;16.75;;
5823;SDS011;2938;52.254;12.988;2023-12-04T12:01:28;26.98;;;14.82;;
5823;SDS011;2938;52.254;12.988;2023-12-04T12:03:57;31.13;;;15.25;;
5823;SDS011;2938;52.254;12.988;2023-12-04T12:06:23;36.10;;;16.73;;
5823;SDS011;2938;52.254;12.988;2023-12-04T12:08:49;37.85;;;16.52;;
5823;SDS011;2938;52.254;12.988;2023-12-04T12:11:15;28.17;;;17.73;;
5823;SDS011;2938;52.254;12.988;2023-12-04T12:13:41;33.75;;;15.43;;
5823;SDS011;2938;52.254;12.988;2023-12-04T12:16:06;25.85;;;13.55;;
5823;SDS011;2938;52.254;12.988;2023-12-04T12:18:36;29.83;;;15.65;;
5823;SDS011;2938;52.254;12.988;2023-12-04T12:21:05;23.25;;;12.68;;
5823;SDS011;2938;52.254;12.988;2023-12-04T12:23:30;31.30;;;16.35;;
5823;SDS011;2938;52.254;12.988;2023-12-04T12:25:55;26.55;;;14.38;;
5823;SDS011;2938;52.254;12.988;2023-12-04T12:28:22;27.08;;;15.10;;
5823;SDS011;2938;52.254;12.988;2023-12-04T12:30:48;24.25;;;12.55;;
5823;SDS011;2938;52.254;12.988;2023-12-04T12:33:13;21.90;;;12.43;;
5823;SDS011;2938;52.254;12.988;2023-12-04T12:35:40;25.48;;;13.48;;
5823;SDS011;2938;52.254;12.988;2023-12-04T12:38:06;23.58;;;13.20;;
5823;SDS011;2938;52.254;12.988;2023-12-04T12:40:31;18.15;;;13.05;;
5823;SDS011;2938;52.254;12.988;2023-12-04T12:43:03;27.13;;;12.32;;
5823;SDS011;2938;52.254;12.988;2023-12-04T12:45:42;22.48;;;11.80;;
5823;SDS011;2938;52.254;12.988;2023-12-04T12:48:14;23.52;;;13.23;;
5823;SDS011;2938;52.254;12.988;2023-12-04T12:50:43;23.27;;;12.38;;
5823;SDS011;2938;52.254;12.988;2023-12-04T12:53:14;25.17;;;12.38;;
5823;SDS011;2938;52.254;12.988;2023-12-04T12:55:42;18.83;;;12.68;;
5823;SDS011;2938;52.254;12.988;2023-12-04T12:58:08;21.35;;;12.88;;
5823;SDS011;2938;52.254;12.988;2023-12-04T13:00:39;28.33;;;13.77;;
5823;SDS011;2938;52.254;12.988;2023-12-04T13:03:06;19.15;;;10.10;;
5823;SDS011;2938;52.254;12.988;2023-12-04T13:05:41;23.73;;;12.23;;
5823;SDS011;2938;52.254;12.988;2023-12-04T13:08:07;20.98;;;11.30;;
5823;SDS011;2938;52.254;12.988;2023-12-04T13:10:32;20.40;;;10.82;;
5823;SDS011;2938;52.254;12.988;2023-12-04T13:12:57;19.25;;;12.48;;
5823;SDS011;2938;52.254;12.988;2023-12-04T13:15:24;18.67;;;10.75;;
5823;SDS011;2938;52.254;12.988;2023-12-04T13:17:50;20.15;;;11.48;;
5823;SDS011;2938;52.254;12.988;2023-12-04T13:20:15;21.52;;;13.35;;
5823;SDS011;2938;52.254;12.988;2023-12-04T13:22:41;15.68;;;10.13;;
5823;SDS011;2938;52.254;12.988;2023-12-04T13:25:07;21.02;;;11.50;;
5823;SDS011;2938;52.254;12.988;2023-12-04T13:27:34;22.15;;;13.48;;
5823;SDS011;2938;52.254;12.988;2023-12-04T13:30:03;18.02;;;10.98;;
5823;SDS011;2938;52.254;12.988;2023-12-04T13:32:30;25.35;;;12.50;;
5823;SDS011;2938;52.254;12.988;2023-12-04T13:34:58;19.45;;;12.23;;
5823;SDS011;2938;52.254;12.988;2023-12-04T13:37:24;19.08;;;10.35;;
5823;SDS011;2938;52.254;12.988;2023-12-04T13:39:51;17.33;;;10.48;;
5823;SDS011;2938;52.254;12.988;2023-12-04T13:42:23;22.65;;;11.32;;
5823;SDS011;2938;52.254;12.988;2023-12-04T13:45:07;19.17;;;9.15;;
5823;SDS011;2938;52.254;12.988;2023-12-04T13:47:34;18.42;;;9.07;;
5823;SDS011;2938;52.254;12.988;2023-12-04T13:50:00;17.98;;;9.73;;
5823;SDS011;2938;52.254;12.988;2023-12-04T13:52:25;17.77;;;10.02;;
5823;SDS011;2938;52.254;12.988;2023-12-04T13:54:54;15.73;;;9.60;;
5823;SDS011;2938;52.254;12.988;2023-12-04T13:57:22;17.90;;;13.10;;
5823;SDS011;2938;52.254;12.988;2023-12-04T13:59:58;13.75;;;9.48;;
5823;SDS011;2938;52.254;12.988;2023-12-04T14:02:24;20.77;;;11.05;;
5823;SDS011;2938;52.254;12.988;2023-12-04T14:04:50;16.83;;;9.80;;
5823;SDS011;2938;52.254;12.988;2023-12-04T14:07:15;22.67;;;9.20;;
5823;SDS011;2938;52.254;12.988;2023-12-04T14:09:41;18.02;;;10.57;;
5823;SDS011;2938;52.254;12.988;2023-12-04T14:12:06;19.80;;;10.75;;
5823;SDS011;2938;52.254;12.988;2023-12-04T14:14:32;16.60;;;9.60;;
5823;SDS011;2938;52.254;12.988;2023-12-04T14:16:58;19.50;;;11.40;;
5823;SDS011;2938;52.254;12.988;2023-12-04T14:19:24;26.88;;;14.20;;
5823;SDS011;2938;52.254;12.988;2023-12-04T14:21:49;24.00;;;12.50;;
5823;SDS011;2938;52.254;12.988;2023-12-04T14:24:14;25.77;;;14.27;;
5823;SDS011;2938;52.254;12.988;2023-12-04T14:26:40;26.17;;;15.20;;
5823;SDS011;2938;52.254;12.988;2023-12-04T14:29:05;30.70;;;15.75;;
5823;SDS011;2938;52.254;12.988;2023-12-04T14:31:32;27.88;;;15.32;;
5823;SDS011;2938;52.254;12.988;2023-12-04T14:34:01;25.35;;;14.50;;
5823;SDS011;2938;52.254;12.988;2023-12-04T14:36:28;25.70;;;16.42;;